Time;durP1;ratioP1;P1;durP2;ratioP2;P2;SDS_P1;SDS_P2;PMS_P1;PMS_P2;Temp;Humidity;BMP_temperature;BMP_pressure;BME280_temperature;BME280_humidity;BME280_pressure;Samples;Min_cycle;Max_cycle;Signal;HPM_P1;HPM_P2
2022/08/06 00:02:23;;;;;;;3.95;0.45;;;14.10;99.90;;;;;;4739911;30;20121;-91
2022/08/06 00:04:49;;;;;;;4.65;0.85;;;14.10;99.90;;;;;;4740455;30;20051;-91
2022/08/06 00:07:15;;;;;;;2.63;0.57;;;14.10;99.90;;;;;;4740502;30;20101;-90
2022/08/06 00:09:41;;;;;;;3.58;0.52;;;14.00;99.90;;;;;;4740905;30;20058;-90
2022/08/06 00:12:08;;;;;;;5.75;0.63;;;14.00;99.90;;;;;;4753104;30;20048;-91
2022/08/06 00:14:33;;;;;;;3.42;0.50;;;14.00;99.90;;;;;;4738582;30;20054;-91
2022/08/06 00:16:59;;;;;;;3.40;0.75;;;14.00;99.90;;;;;;4739166;30;20056;-91
2022/08/06 00:19:25;;;;;;;2.88;0.40;;;13.90;99.90;;;;;;4739748;30;20051;-91
2022/08/06 00:21:52;;;;;;;4.32;0.63;;;14.00;99.90;;;;;;4740432;30;20501;-91
2022/08/06 00:24:19;;;;;;;3.08;0.70;;;13.90;99.90;;;;;;4740284;30;20044;-90
2022/08/06 00:26:45;;;;;;;2.45;0.30;;;13.90;99.90;;;;;;4752083;30;20144;-91
2022/08/06 00:29:11;;;;;;;4.38;0.68;;;13.80;99.90;;;;;;4738547;30;20043;-91
2022/08/06 00:31:37;;;;;;;1.65;0.40;;;13.80;99.90;;;;;;4738138;30;20387;-90
2022/08/06 00:34:03;;;;;;;4.63;0.68;;;13.80;99.90;;;;;;4738049;30;20406;-91
2022/08/06 00:36:31;;;;;;;3.58;0.30;;;13.80;99.90;;;;;;4739998;30;20058;-91
2022/08/06 00:39:00;;;;;;;1.58;0.47;;;13.80;99.90;;;;;;4738250;30;20121;-90
2022/08/06 00:41:27;;;;;;;2.97;0.60;;;13.80;99.90;;;;;;4736903;30;20072;-90
2022/08/06 00:43:53;;;;;;;6.78;0.73;;;13.70;99.90;;;;;;4737673;30;20055;-90
2022/08/06 00:46:19;;;;;;;2.83;0.68;;;13.70;99.90;;;;;;4738782;30;20052;-91
2022/08/06 00:48:44;;;;;;;3.75;0.50;;;13.70;99.90;;;;;;4738619;30;20448;-91
2022/08/06 00:51:10;;;;;;;4.60;0.70;;;13.60;99.90;;;;;;4737481;30;20425;-90
2022/08/06 00:53:36;;;;;;;3.38;0.32;;;13.60;99.90;;;;;;4737483;30;20060;-90
2022/08/06 00:56:03;;;;;;;6.07;1.10;;;13.60;99.90;;;;;;4737628;30;20052;-90
2022/08/06 00:58:30;;;;;;;8.35;0.77;;;13.50;99.90;;;;;;4737842;30;20059;-90
2022/08/06 01:00:55;;;;;;;2.30;0.40;;;13.50;99.90;;;;;;4736907;30;20047;-90
2022/08/06 01:03:22;;;;;;;4.43;0.57;;;13.50;99.90;;;;;;4737252;30;20044;-91
2022/08/06 01:05:47;;;;;;;3.10;0.57;;;13.50;99.90;;;;;;4738130;30;20052;-91
2022/08/06 01:08:13;;;;;;;2.60;0.52;;;13.50;99.90;;;;;;4736665;30;20472;-91
2022/08/06 01:10:40;;;;;;;1.13;0.40;;;13.40;99.90;;;;;;4737965;30;20552;-90
2022/08/06 01:13:06;;;;;;;2.08;0.40;;;13.40;99.90;;;;;;4737506;30;20586;-91
2022/08/06 01:15:33;;;;;;;2.83;0.30;;;13.30;99.90;;;;;;4737089;30;20070;-91
2022/08/06 01:18:02;;;;;;;2.40;0.60;;;13.30;99.90;;;;;;4737860;30;20048;-91
2022/08/06 01:20:44;;;;;;;3.63;0.45;;;13.20;99.90;;;;;;4737770;30;20048;-91
2022/08/06 01:23:24;;;;;;;1.98;0.47;;;13.20;99.90;;;;;;4736907;30;20322;-90
2022/08/06 01:26:01;;;;;;;3.08;0.68;;;13.10;99.90;;;;;;4737593;30;20051;-90
2022/08/06 01:28:33;;;;;;;4.28;0.55;;;13.10;99.90;;;;;;4737238;30;20044;-90
2022/08/06 01:31:04;;;;;;;1.88;0.40;;;13.00;99.90;;;;;;4737033;30;20491;-90
2022/08/06 01:33:35;;;;;;;2.88;0.50;;;12.90;99.90;;;;;;4739075;30;20067;-90
2022/08/06 01:36:05;;;;;;;2.13;0.70;;;12.80;99.90;;;;;;4738580;30;20130;-91
2022/08/06 01:38:37;;;;;;;2.28;0.40;;;12.70;99.90;;;;;;4733211;30;20048;-91
2022/08/06 01:41:06;;;;;;;1.40;0.47;;;12.60;99.90;;;;;;4736239;30;20114;-90
2022/08/06 01:43:36;;;;;;;3.17;0.50;;;12.50;99.90;;;;;;4735559;30;20131;-91
2022/08/06 01:46:03;;;;;;;4.22;0.60;;;12.40;99.90;;;;;;4735769;30;20048;-90
2022/08/06 01:48:32;;;;;;;2.67;0.85;;;12.30;99.90;;;;;;4734074;30;20055;-91
2022/08/06 01:51:02;;;;;;;2.47;0.68;;;12.20;99.90;;;;;;4733575;30;20110;-91
2022/08/06 01:53:35;;;;;;;7.20;1.00;;;12.20;99.90;;;;;;4734158;30;20052;-91
2022/08/06 01:56:04;;;;;;;3.42;0.85;;;12.10;99.90;;;;;;4734334;30;20080;-91
2022/08/06 01:58:34;;;;;;;6.28;0.63;;;12.00;99.90;;;;;;4733691;30;20064;-90
2022/08/06 02:01:03;;;;;;;2.10;0.60;;;12.00;99.90;;;;;;4734398;30;20087;-90
2022/08/06 02:03:35;;;;;;;6.63;1.00;;;12.00;99.90;;;;;;4719340;30;20060;-90
2022/08/06 02:06:01;;;;;;;1.75;0.60;;;11.90;99.90;;;;;;4727433;30;20521;-90
2022/08/06 02:08:31;;;;;;;3.38;0.70;;;11.90;99.90;;;;;;4733712;30;20052;-91
2022/08/06 02:10:58;;;;;;;4.40;0.80;;;11.90;99.90;;;;;;4734071;30;20056;-91
2022/08/06 02:13:25;;;;;;;2.38;0.70;;;11.90;99.90;;;;;;4733667;30;20067;-90
2022/08/06 02:15:52;;;;;;;5.75;0.88;;;11.90;99.90;;;;;;4734038;30;20465;-90
2022/08/06 02:18:20;;;;;;;4.13;0.82;;;11.90;99.90;;;;;;4733065;30;20379;-91
2022/08/06 02:20:51;;;;;;;3.38;0.80;;;11.90;99.90;;;;;;4734007;30;20048;-90
2022/08/06 02:23:21;;;;;;;3.13;0.73;;;11.90;99.90;;;;;;4733875;30;20056;-91
2022/08/06 02:25:50;;;;;;;8.45;0.88;;;11.90;99.90;;;;;;4734686;30;20141;-91
2022/08/06 02:28:19;;;;;;;4.53;0.40;;;11.90;99.90;;;;;;4733516;30;20044;-90
2022/08/06 02:30:48;;;;;;;1.65;0.43;;;11.80;99.90;;;;;;4719313;30;20193;-90
2022/08/06 02:33:15;;;;;;;2.65;0.40;;;11.80;99.90;;;;;;4732089;30;20052;-90
2022/08/06 02:35:50;;;;;;;3.22;0.40;;;11.70;99.90;;;;;;4718472;30;20052;-90
2022/08/06 02:38:31;;;;;;;2.33;0.68;;;11.60;99.90;;;;;;4737427;30;20157;-91
2022/08/06 02:41:04;;;;;;;2.50;0.70;;;11.60;99.90;;;;;;4752429;30;20059;-91
2022/08/06 02:43:34;;;;;;;3.03;0.85;;;11.50;99.90;;;;;;4766357;30;20476;-89
2022/08/06 02:46:21;;;;;;;1.50;0.70;;;11.40;99.90;;;;;;4750494;30;20062;-90
2022/08/06 02:48:53;;;;;;;5.20;1.20;;;11.40;99.90;;;;;;4752510;30;20462;-91
2022/08/06 02:51:27;;;;;;;3.58;1.25;;;11.40;99.90;;;;;;4737966;30;20055;-90
2022/08/06 02:53:59;;;;;;;3.60;1.27;;;11.40;99.90;;;;;;4752334;30;20056;-91
2022/08/06 02:56:26;;;;;;;4.53;0.90;;;11.30;99.90;;;;;;4750659;30;20051;-90
2022/08/06 02:58:55;;;;;;;2.15;0.95;;;11.30;99.90;;;;;;4751129;30;20456;-90
2022/08/06 03:01:26;;;;;;;3.50;1.13;;;11.30;99.90;;;;;;4749893;30;20130;-90
2022/08/06 03:03:55;;;;;;;2.92;1.15;;;11.30;99.90;;;;;;4750128;30;20052;-91
2022/08/06 03:06:24;;;;;;;1.63;0.90;;;11.20;99.90;;;;;;4750560;30;20044;-90
2022/08/06 03:08:52;;;;;;;3.90;0.93;;;11.20;99.90;;;;;;4750321;30;20135;-90
2022/08/06 03:11:21;;;;;;;4.47;1.10;;;11.50;99.90;;;;;;4751144;30;20047;-90
2022/08/06 03:13:48;;;;;;;2.35;0.88;;;11.10;99.90;;;;;;4750548;30;20108;-92
2022/08/06 03:16:15;;;;;;;4.40;1.13;;;11.10;99.90;;;;;;4751172;30;20589;-90
2022/08/06 03:18:43;;;;;;;6.82;1.00;;;11.10;99.90;;;;;;4752622;30;20139;-91
2022/08/06 03:21:10;;;;;;;2.70;1.02;;;11.10;99.90;;;;;;4752615;30;20069;-90
2022/08/06 03:23:37;;;;;;;2.83;0.80;;;11.10;99.90;;;;;;4750312;30;20047;-91
2022/08/06 03:26:05;;;;;;;3.50;1.05;;;11.10;99.90;;;;;;4750333;30;20486;-91
2022/08/06 03:28:33;;;;;;;3.70;1.00;;;11.10;99.90;;;;;;4750044;30;20059;-90
2022/08/06 03:31:00;;;;;;;3.55;1.00;;;11.10;99.90;;;;;;4749846;30;20138;-91
2022/08/06 03:33:26;;;;;;;5.03;0.93;;;11.10;99.90;;;;;;4749992;30;20681;-90
2022/08/06 03:35:54;;;;;;;5.15;1.15;;;11.10;99.90;;;;;;4750070;30;20047;-91
2022/08/06 03:38:22;;;;;;;5.50;1.73;;;11.10;99.90;;;;;;4745772;30;20064;-90
2022/08/06 03:40:49;;;;;;;2.38;1.00;;;11.10;99.90;;;;;;4733099;30;20477;-90
2022/08/06 03:43:15;;;;;;;2.15;1.00;;;11.10;99.90;;;;;;4732114;30;20062;-91
2022/08/06 03:45:48;;;;;;;3.45;1.08;;;11.10;99.90;;;;;;4732295;30;20041;-90
2022/08/06 03:48:17;;;;;;;2.42;1.00;;;11.10;99.90;;;;;;4732944;30;20543;-90
2022/08/06 03:50:47;;;;;;;4.35;1.00;;;11.00;99.90;;;;;;4731922;30;20044;-91
2022/08/06 03:53:20;;;;;;;3.85;1.15;;;11.10;99.90;;;;;;4732462;30;20087;-90
2022/08/06 03:55:46;;;;;;;;;;;11.00;99.90;;;;;;4733221;30;20045;-91
2022/08/06 03:58:13;;;;;;;3.78;1.02;;;11.00;99.90;;;;;;4733695;30;19930;-91
2022/08/06 04:00:46;;;;;;;2.70;0.90;;;11.00;99.90;;;;;;4734594;30;20490;-91
2022/08/06 04:03:14;;;;;;;3.92;0.98;;;11.10;99.90;;;;;;4735536;30;20052;-91
2022/08/06 04:05:42;;;;;;;2.78;0.85;;;11.00;99.90;;;;;;4733435;30;20060;-91
2022/08/06 04:08:10;;;;;;;2.30;1.00;;;11.00;99.90;;;;;;4723481;30;20128;-91
2022/08/06 04:10:40;;;;;;;5.85;1.00;;;11.00;99.90;;;;;;4720246;30;20087;-91
2022/08/06 04:13:09;;;;;;;2.90;0.90;;;11.10;99.90;;;;;;4721574;30;20117;-90
2022/08/06 04:15:37;;;;;;;3.00;0.90;;;11.10;99.90;;;;;;4721413;30;20052;-91
2022/08/06 04:18:09;;;;;;;5.32;1.00;;;11.20;99.90;;;;;;4722130;30;20136;-92
2022/08/06 04:20:35;;;;;;;3.85;0.90;;;11.20;99.90;;;;;;4721173;30;20056;-91
2022/08/06 04:23:02;;;;;;;2.30;0.98;;;11.30;99.90;;;;;;4721456;30;20135;-91
2022/08/06 04:25:31;;;;;;;2.03;0.70;;;11.70;99.90;;;;;;4729688;30;20156;-91
2022/08/06 04:27:59;;;;;;;5.75;1.02;;;11.40;99.90;;;;;;4735705;30;20080;-91
2022/08/06 04:30:27;;;;;;;3.13;0.98;;;11.40;99.90;;;;;;4737967;30;20048;-91
2022/08/06 04:32:53;;;;;;;2.40;1.15;;;11.50;99.90;;;;;;4737511;30;20060;-91
2022/08/06 04:35:20;;;;;;;2.78;1.00;;;11.60;99.90;;;;;;4737240;30;20060;-91
2022/08/06 04:37:47;;;;;;;5.72;1.42;;;11.70;99.90;;;;;;4720937;30;20060;-91
2022/08/06 04:40:14;;;;;;;6.07;1.40;;;11.90;99.90;;;;;;4738917;30;20051;-91
2022/08/06 04:42:40;;;;;;;3.92;1.20;;;12.00;99.90;;;;;;4740002;30;20223;-91
2022/08/06 04:45:08;;;;;;;2.03;1.02;;;12.20;99.90;;;;;;4746922;30;20059;-90
2022/08/06 04:47:35;;;;;;;2.42;1.10;;;12.40;99.90;;;;;;4755785;30;20497;-90
2022/08/06 04:50:02;;;;;;;4.57;1.20;;;12.50;99.90;;;;;;4758142;30;20097;-90
2022/08/06 04:52:28;;;;;;;2.83;1.08;;;12.70;99.90;;;;;;4755240;30;20047;-92
2022/08/06 04:54:54;;;;;;;2.72;0.88;;;12.80;99.90;;;;;;4751369;30;20060;-90
2022/08/06 04:57:20;;;;;;;4.13;1.23;;;13.00;99.90;;;;;;4737515;30;20052;-90
2022/08/06 04:59:46;;;;;;;3.65;0.90;;;13.10;99.90;;;;;;4731387;30;20052;-90
2022/08/06 05:02:12;;;;;;;4.47;1.15;;;13.20;99.90;;;;;;4736119;30;20110;-90
2022/08/06 05:04:39;;;;;;;7.60;1.00;;;13.20;99.90;;;;;;4732235;30;20513;-90
2022/08/06 05:07:21;;;;;;;4.38;1.20;;;13.30;99.90;;;;;;4742722;30;20052;-90
2022/08/06 05:09:48;;;;;;;3.92;0.90;;;13.40;99.90;;;;;;4746234;30;20059;-90
2022/08/06 05:12:24;;;;;;;2.50;1.00;;;13.50;99.90;;;;;;4738530;30;20044;-90
2022/08/06 05:14:58;;;;;;;4.88;1.15;;;13.60;99.90;;;;;;4734768;30;20048;-90
2022/08/06 05:17:30;;;;;;;7.75;1.10;;;13.60;99.90;;;;;;4734216;30;20052;-90
2022/08/06 05:20:00;;;;;;;4.40;1.10;;;13.60;99.90;;;;;;4734466;30;20499;-91
2022/08/06 05:22:28;;;;;;;3.58;1.15;;;13.60;99.90;;;;;;4733477;30;20061;-90
2022/08/06 05:24:55;;;;;;;3.72;1.00;;;13.60;99.90;;;;;;4734338;30;20048;-90
2022/08/06 05:27:21;;;;;;;4.15;0.90;;;13.60;99.90;;;;;;4733920;30;20095;-90
2022/08/06 05:29:46;;;;;;;2.17;0.80;;;13.60;99.90;;;;;;4733693;30;20088;-90
2022/08/06 05:32:12;;;;;;;3.97;0.95;;;13.60;99.90;;;;;;4733531;30;20040;-91
2022/08/06 05:34:38;;;;;;;4.68;1.13;;;13.60;99.90;;;;;;4734255;30;20162;-92
2022/08/06 05:37:04;;;;;;;2.22;0.90;;;13.60;99.90;;;;;;4733977;30;20052;-91
2022/08/06 05:39:30;;;;;;;3.30;0.80;;;13.60;99.90;;;;;;4719687;30;20151;-91
2022/08/06 05:41:55;;;;;;;4.82;1.10;;;13.70;99.90;;;;;;4734110;30;20059;-91
2022/08/06 05:44:22;;;;;;;3.13;0.95;;;13.90;99.90;;;;;;4723166;30;20046;-90
2022/08/06 05:47:02;;;;;;;3.17;0.93;;;14.10;99.90;;;;;;4736659;30;20087;-92
2022/08/06 05:49:41;;;;;;;3.92;1.10;;;14.30;99.90;;;;;;4737999;30;20055;-89
2022/08/06 05:52:12;;;;;;;3.17;0.70;;;14.50;99.90;;;;;;4736840;30;20062;-90
2022/08/06 05:54:43;;;;;;;3.25;0.93;;;14.70;99.90;;;;;;4736269;30;20109;-90
2022/08/06 05:57:16;;;;;;;3.67;0.70;;;14.90;99.90;;;;;;4750390;30;20058;-90
2022/08/06 05:59:50;;;;;;;5.78;0.70;;;15.00;99.90;;;;;;4736879;30;20055;-90
2022/08/06 06:02:18;;;;;;;3.78;0.80;;;15.10;99.90;;;;;;4736018;30;20400;-90
2022/08/06 06:04:46;;;;;;;3.90;0.90;;;15.10;99.90;;;;;;4736082;30;20051;-90
2022/08/06 06:07:13;;;;;;;3.40;0.77;;;15.00;99.90;;;;;;4736409;30;20048;-90
2022/08/06 06:09:40;;;;;;;1.95;0.50;;;15.00;99.90;;;;;;4738379;30;20082;-89
2022/08/06 06:12:06;;;;;;;4.13;0.75;;;14.90;99.90;;;;;;4735482;30;20048;-90
2022/08/06 06:14:38;;;;;;;3.22;0.70;;;14.90;99.90;;;;;;4736391;30;20079;-90
2022/08/06 06:17:11;;;;;;;5.85;0.98;;;14.80;99.90;;;;;;4735518;30;20121;-90
2022/08/06 06:19:41;;;;;;;;;;;14.70;99.90;;;;;;4738691;30;20451;-90
2022/08/06 06:22:20;;;;;;;2.80;0.85;;;14.60;99.90;;;;;;4735966;30;20020;-90
2022/08/06 06:24:53;;;;;;;2.95;0.70;;;14.50;99.90;;;;;;4732143;30;20181;-90
2022/08/06 06:27:24;;;;;;;1.90;0.50;;;14.50;99.90;;;;;;4741871;30;20048;-91
2022/08/06 06:29:59;;;;;;;3.80;0.85;;;14.50;99.90;;;;;;4767681;30;20149;-90
2022/08/06 06:32:42;;;;;;;4.63;0.70;;;14.40;99.90;;;;;;4741479;30;20052;-89
2022/08/06 06:35:30;;;;;;;5.82;0.80;;;14.40;99.90;;;;;;4740510;30;20066;-90
2022/08/06 06:38:00;;;;;;;4.43;1.10;;;14.50;99.90;;;;;;4744163;30;20051;-91
2022/08/06 06:40:42;;;;;;;5.53;1.20;;;14.70;99.90;;;;;;4749284;30;20051;-91
2022/08/06 06:43:15;;;;;;;3.13;0.85;;;14.90;99.90;;;;;;4742160;30;20490;-90
2022/08/06 06:46:04;;;;;;;21.48;2.28;;;15.10;99.90;;;;;;4731861;30;20060;-91
2022/08/06 06:48:36;;;;;;;8.55;1.13;;;15.40;99.90;;;;;;4725740;30;20056;-90
2022/08/06 06:51:06;;;;;;;24.80;3.53;;;15.60;99.90;;;;;;4736548;30;20080;-90
2022/08/06 06:53:37;;;;;;;343.13;45.30;;;15.70;99.90;;;;;;4735059;30;20122;-89
2022/08/06 06:56:04;;;;;;;89.78;12.93;;;15.90;99.90;;;;;;4737854;30;20035;-91
2022/08/06 06:58:42;;;;;;;117.88;12.40;;;16.00;99.90;;;;;;4736041;30;20056;-90
2022/08/06 07:01:11;;;;;;;26.55;2.55;;;16.30;99.90;;;;;;4736408;30;20055;-91
2022/08/06 07:03:40;;;;;;;24.80;1.98;;;16.50;99.90;;;;;;4735732;30;20125;-91
2022/08/06 07:06:08;;;;;;;3.58;0.45;;;16.70;99.90;;;;;;4737217;30;20079;-91
2022/08/06 07:08:44;;;;;;;3.63;0.50;;;16.80;99.90;;;;;;4752201;30;20067;-91
2022/08/06 07:11:13;;;;;;;2.92;0.50;;;17.00;99.90;;;;;;4737834;30;20079;-91
2022/08/06 07:13:40;;;;;;;6.00;0.70;;;17.10;99.90;;;;;;4737036;30;20473;-90
2022/08/06 07:16:06;;;;;;;2.75;0.73;;;17.30;99.90;;;;;;4736388;30;20517;-91
2022/08/06 07:18:34;;;;;;;4.22;0.60;;;17.40;99.90;;;;;;4735857;30;20055;-91
2022/08/06 07:21:01;;;;;;;4.13;0.47;;;17.40;99.90;;;;;;4734156;30;20048;-90
2022/08/06 07:23:27;;;;;;;4.10;0.60;;;17.50;99.90;;;;;;4726822;30;20056;-90
2022/08/06 07:25:55;;;;;;;2.72;0.40;;;17.60;99.90;;;;;;4740863;30;20118;-92
2022/08/06 07:28:25;;;;;;;4.72;0.50;;;17.70;99.90;;;;;;4736691;30;20052;-92
2022/08/06 07:30:52;;;;;;;5.97;0.68;;;17.80;99.90;;;;;;4733344;30;20090;-90
2022/08/06 07:33:19;;;;;;;4.07;0.50;;;18.00;99.90;;;;;;4750050;30;20055;-91
2022/08/06 07:35:47;;;;;;;3.67;0.85;;;18.20;99.90;;;;;;4749564;30;20382;-91
2022/08/06 07:38:16;;;;;;;3.33;0.70;;;18.40;99.90;;;;;;4751514;30;20060;-91
2022/08/06 07:40:43;;;;;;;1.13;0.30;;;18.50;99.90;;;;;;4721587;30;20135;-90
2022/08/06 07:43:20;;;;;;;4.35;0.50;;;18.70;99.90;;;;;;4735542;30;20049;-91
2022/08/06 07:45:48;;;;;;;2.35;0.40;;;18.60;99.90;;;;;;4735568;30;20055;-90
2022/08/06 07:48:15;;;;;;;3.55;0.60;;;18.60;99.90;;;;;;4721245;30;20413;-90
2022/08/06 07:50:47;;;;;;;5.75;0.75;;;18.60;99.90;;;;;;4739321;30;20130;-91
2022/08/06 07:53:14;;;;;;;1.52;0.20;;;18.50;99.90;;;;;;4737516;30;20430;-90
2022/08/06 07:55:42;;;;;;;6.07;0.57;;;18.50;99.90;;;;;;4735728;30;20052;-90
2022/08/06 07:58:08;;;;;;;6.85;0.70;;;18.50;99.90;;;;;;4735947;30;20052;-91
2022/08/06 08:00:35;;;;;;;1.90;0.40;;;18.50;99.90;;;;;;4720761;30;20052;-90
2022/08/06 08:08:31;;;;;;;3.80;0.47;;;18.70;99.90;;;;;;4736078;30;20064;-90
2022/08/06 08:10:58;;;;;;;3.78;1.35;;;18.70;99.90;;;;;;4722066;30;20231;-91
2022/08/06 08:13:24;;;;;;;3.92;0.45;;;18.80;99.90;;;;;;4735103;30;20067;-91
2022/08/06 08:15:51;;;;;;;8.88;1.20;;;18.80;99.90;;;;;;4724542;30;20059;-91
2022/08/06 08:18:17;;;;;;;5.25;0.55;;;18.90;99.90;;;;;;4720898;30;20410;-91
2022/08/06 08:20:44;;;;;;;3.33;0.50;;;19.00;99.90;;;;;;4721430;30;20117;-90
2022/08/06 08:23:12;;;;;;;2.80;0.40;;;19.10;99.90;;;;;;4721054;30;20530;-91
2022/08/06 08:25:39;;;;;;;2.13;0.50;;;19.20;99.90;;;;;;4722846;30;20501;-90
2022/08/06 08:28:07;;;;;;;3.65;0.40;;;19.30;99.90;;;;;;4722181;30;20072;-91
2022/08/06 08:30:33;;;;;;;4.05;0.50;;;19.50;99.90;;;;;;4720725;30;20052;-90
2022/08/06 08:32:59;;;;;;;3.00;0.40;;;19.70;99.90;;;;;;4719937;30;20154;-90
2022/08/06 08:35:24;;;;;;;4.00;0.50;;;19.90;99.90;;;;;;4720354;30;20056;-91
2022/08/06 08:37:50;;;;;;;5.15;0.80;;;19.90;99.90;;;;;;4721187;30;20096;-90
2022/08/06 08:40:16;;;;;;;2.90;0.50;;;19.90;99.90;;;;;;4737662;30;20063;-91
2022/08/06 08:42:46;;;;;;;3.97;0.43;;;19.90;99.90;;;;;;4738132;30;20166;-90
2022/08/06 08:45:13;;;;;;;6.68;0.80;;;20.00;99.90;;;;;;4736531;30;20405;-91
2022/08/06 08:47:45;;;;;;;4.45;0.70;;;20.20;99.90;;;;;;4739369;30;20102;-91
2022/08/06 08:50:11;;;;;;;2.70;0.80;;;20.20;99.90;;;;;;4738086;30;20135;-91
2022/08/06 08:52:40;;;;;;;3.15;0.40;;;20.30;99.90;;;;;;4737282;30;20051;-90
2022/08/06 08:55:11;;;;;;;1.65;0.50;;;20.40;99.90;;;;;;4738991;30;20067;-90
2022/08/06 08:57:38;;;;;;;8.10;1.00;;;20.30;99.90;;;;;;4738122;30;20047;-90
2022/08/06 09:00:06;;;;;;;4.05;0.80;;;20.00;99.90;;;;;;4736809;30;20505;-91
2022/08/06 09:02:32;;;;;;;3.60;0.88;;;19.80;99.90;;;;;;4737497;30;20142;-91
2022/08/06 09:04:59;;;;;;;8.80;1.00;;;19.40;99.90;;;;;;4737911;30;20059;-91
2022/08/06 09:07:27;;;;;;;6.97;0.88;;;19.10;99.90;;;;;;4738851;30;20062;-90
2022/08/06 09:09:53;;;;;;;3.20;0.63;;;18.70;99.90;;;;;;4739294;30;20510;-92
2022/08/06 09:12:19;;;;;;;3.25;0.93;;;18.40;99.90;;;;;;4737842;30;20048;-92
2022/08/06 09:14:46;;;;;;;5.50;0.90;;;18.20;99.90;;;;;;4738288;30;20563;-91
2022/08/06 09:17:12;;;;;;;4.30;0.98;;;18.00;99.90;;;;;;4738098;30;20056;-91
2022/08/06 09:19:38;;;;;;;5.45;1.42;;;17.90;99.90;;;;;;4741163;30;20398;-90
2022/08/06 09:22:04;;;;;;;6.13;1.30;;;17.80;99.90;;;;;;4736021;30;20390;-90
2022/08/06 09:24:30;;;;;;;4.07;0.90;;;17.80;99.90;;;;;;4737641;30;20570;-90
2022/08/06 09:27:09;;;;;;;3.38;1.00;;;17.80;99.90;;;;;;4737731;30;20059;-90
2022/08/06 09:29:36;;;;;;;3.25;1.00;;;17.80;99.90;;;;;;4738606;30;20055;-90
2022/08/06 09:32:04;;;;;;;6.85;1.30;;;17.80;99.90;;;;;;4736751;30;20056;-90
2022/08/06 09:35:17;;;;;;;7.03;1.45;;;17.80;99.90;;;;;;4738157;30;20059;-91
2022/08/06 09:38:09;;;;;;;8.75;1.35;;;17.90;99.90;;;;;;4752238;30;20055;-91
2022/08/06 09:41:06;;;;;;;3.70;1.08;;;18.00;99.90;;;;;;4721643;30;20071;-91
2022/08/06 09:43:50;;;;;;;3.72;1.00;;;18.20;99.90;;;;;;4734336;30;20063;-90
2022/08/06 09:46:34;;;;;;;;;;;18.60;99.90;;;;;;4720893;30;20060;-91
2022/08/06 09:49:01;;;;;;;5.88;1.13;;;18.70;99.90;;;;;;4735497;30;19937;-91
2022/08/06 09:51:34;;;;;;;5.55;1.30;;;18.80;99.90;;;;;;4735419;30;20143;-90
2022/08/06 09:54:12;;;;;;;;;;;18.70;99.90;;;;;;4736704;30;20052;-92
2022/08/06 09:56:48;;;;;;;5.05;1.38;;;18.60;99.90;;;;;;4733582;30;19926;-91
2022/08/06 09:59:52;;;;;;;5.50;1.50;;;18.40;99.90;;;;;;4734894;30;20513;-90
2022/08/06 10:02:41;;;;;;;4.40;1.10;;;18.80;99.90;;;;;;4732894;30;20363;-88
2022/08/06 10:05:14;;;;;;;4.07;1.35;;;19.20;99.90;;;;;;4734461;30;20044;-89
2022/08/06 10:08:05;;;;;;;6.47;1.40;;;19.50;99.90;;;;;;4718176;30;20051;-90
2022/08/06 10:11:02;;;;;;;3.60;1.08;;;19.80;99.90;;;;;;4732257;30;20102;-93
2022/08/06 10:13:34;;;;;;;5.32;1.23;;;19.90;99.90;;;;;;4734711;30;20068;-88
2022/08/06 10:16:27;;;;;;;6.63;1.20;;;19.60;99.90;;;;;;4731985;30;20052;-90
2022/08/06 10:19:23;;;;;;;4.80;1.58;;;19.90;99.90;;;;;;4718668;30;20516;-88
2022/08/06 10:21:54;;;;;;;5.65;1.40;;;20.00;99.90;;;;;;4733046;30;20569;-89
2022/08/06 10:24:26;;;;;;;3.42;1.13;;;20.10;99.90;;;;;;4720304;30;20056;-92
2022/08/06 10:27:19;;;;;;;6.82;1.65;;;20.00;99.90;;;;;;4734628;30;20067;-90
2022/08/06 10:30:04;;;;;;;5.13;1.20;;;20.20;99.90;;;;;;4735688;30;20105;-89
2022/08/06 10:33:19;;;;;;;4.15;1.50;;;20.40;99.90;;;;;;4737214;30;20067;-90
2022/08/06 10:36:14;;;;;;;;;;;20.60;99.90;;;;;;4727850;30;20058;-90
2022/08/06 10:38:50;;;;;;;3.13;1.48;;;20.90;99.90;;;;;;4742123;30;19982;-89
2022/08/06 10:41:24;;;;;;;4.82;1.60;;;20.80;99.90;;;;;;4754747;30;20055;-91
2022/08/06 10:43:59;;;;;;;2.33;1.25;;;21.00;99.90;;;;;;4753756;30;20081;-89
2022/08/06 10:46:31;;;;;;;6.00;1.80;;;21.10;99.90;;;;;;4753153;30;20398;-91
2022/08/06 10:49:01;;;;;;;3.30;1.33;;;21.30;99.90;;;;;;4755257;30;20078;-90
2022/08/06 10:51:50;;;;;;;5.50;2.05;;;21.20;99.90;;;;;;4752364;30;20051;-89
2022/08/06 10:54:33;;;;;;;4.32;1.85;;;20.90;99.90;;;;;;4753104;30;20055;-92
2022/08/06 10:57:00;;;;;;;4.93;1.58;;;21.00;99.90;;;;;;4753857;30;20443;-92
2022/08/06 10:59:26;;;;;;;4.55;1.30;;;20.70;99.90;;;;;;4752980;30;20047;-91
2022/08/06 11:02:02;;;;;;;4.28;1.27;;;20.40;99.90;;;;;;4754862;30;20070;-90
2022/08/06 11:05:27;;;;;;;;;;;;;;;;;;;;;
2022/08/06 11:08:31;;;;;;;4.75;1.80;;;20.60;99.90;;;;;;4726774;30;20137;-90
2022/08/06 11:11:35;;;;;;;3.58;1.30;;;20.70;99.90;;;;;;4745406;29;20066;-92
2022/08/06 11:14:07;;;;;;;;;;;21.00;99.90;;;;;;4750427;30;20116;-90
2022/08/06 11:17:00;;;;;;;3.78;1.30;;;21.30;96.80;;;;;;4736038;30;20020;-90
2022/08/06 11:19:46;;;;;;;4.65;1.25;;;21.50;98.20;;;;;;4737106;30;20059;-90
2022/08/06 11:22:50;;;;;;;4.28;1.40;;;21.60;95.50;;;;;;4736132;30;20113;-93
2022/08/06 11:25:48;;;;;;;2.67;1.30;;;21.50;95.50;;;;;;4738155;30;20103;-91
2022/08/06 11:28:39;;;;;;;6.28;1.58;;;21.80;93.70;;;;;;4734520;30;20142;-91
2022/08/06 11:31:54;;;;;;;3.13;1.52;;;21.90;93.10;;;;;;4734455;30;20064;-90
2022/08/06 11:34:44;;;;;;;3.85;1.40;;;22.10;92.10;;;;;;4737425;30;20051;-91
2022/08/06 11:37:34;;;;;;;2.67;1.50;;;22.20;91.70;;;;;;4736906;30;20416;-90
2022/08/06 11:40:14;;;;;;;4.18;1.85;;;22.20;92.60;;;;;;4736057;30;20478;-91
2022/08/06 11:42:45;;;;;;;6.82;2.00;;;22.40;94.30;;;;;;4734705;30;20091;-92
2022/08/06 11:45:19;;;;;;;3.50;1.95;;;22.20;94.80;;;;;;4734760;30;20114;-91
2022/08/06 11:48:27;;;;;;;2.95;1.80;;;22.20;94.20;;;;;;4736532;30;20048;-91
2022/08/06 11:51:46;;;;;;;6.82;2.40;;;22.20;89.30;;;;;;4743129;30;20056;-90
2022/08/06 11:55:07;;;;;;;6.10;2.13;;;22.10;89.00;;;;;;4764650;30;20133;-91
2022/08/06 11:57:39;;;;;;;5.10;2.40;;;22.10;90.80;;;;;;4709641;30;20501;-92
2022/08/06 12:00:17;;;;;;;5.30;2.50;;;21.90;88.20;;;;;;4735073;30;20063;-91
2022/08/06 12:03:24;;;;;;;5.35;2.38;;;21.70;86.00;;;;;;4747921;30;20496;-90
2022/08/06 12:06:21;;;;;;;4.38;2.38;;;21.90;88.80;;;;;;4773511;30;20059;-90
2022/08/06 12:09:12;;;;;;;4.90;2.92;;;22.10;89.60;;;;;;4754913;30;20515;-90
2022/08/06 12:11:44;;;;;;;4.38;2.47;;;22.00;90.20;;;;;;4752385;30;20063;-91
2022/08/06 12:14:40;;;;;;;4.22;2.40;;;21.90;90.00;;;;;;4752957;30;20062;-92
2022/08/06 12:17:29;;;;;;;5.88;2.55;;;21.70;88.80;;;;;;4767647;30;20043;-90
2022/08/06 12:20:09;;;;;;;5.40;2.58;;;21.60;88.10;;;;;;4754727;30;20493;-91
2022/08/06 12:22:54;;;;;;;4.13;2.40;;;21.80;87.40;;;;;;4753849;30;20066;-90
2022/08/06 12:29:15;;;;;;;6.68;3.50;;;22.00;85.80;;;;;;4724116;30;20143;-92
2022/08/06 12:32:45;;;;;;;;;;;;;;;;;;;;;
2022/08/06 12:40:23;;;;;;;4.40;2.63;;;21.90;80.70;;;;;;4775950;30;20271;-94
2022/08/06 12:43:07;;;;;;;8.55;2.80;;;22.00;80.60;;;;;;4770450;30;20116;-93
2022/08/06 12:45:55;;;;;;;3.50;2.55;;;21.90;80.50;;;;;;4731865;30;20067;-94
2022/08/06 12:48:58;;;;;;;6.32;2.67;;;21.90;80.90;;;;;;4772021;30;20070;-94
2022/08/06 12:52:55;;;;;;;4.88;2.80;;;21.80;79.00;;;;;;4769846;30;20170;-96
2022/08/06 12:58:03;;;;;;;5.63;2.40;;;21.70;81.10;;;;;;4768297;30;20052;-94
2022/08/06 13:01:09;;;;;;;6.22;2.33;;;21.80;80.00;;;;;;4768765;30;20048;-93
2022/08/06 13:06:54;;;;;;;3.70;2.17;;;21.80;78.90;;;;;;4739142;30;20047;-93
2022/08/06 13:10:01;;;;;;;3.38;2.40;;;21.90;78.20;;;;;;4741569;30;20048;-94
2022/08/06 13:13:21;;;;;;;3.63;2.65;;;21.80;76.70;;;;;;4756694;30;20619;-94
2022/08/06 13:16:01;;;;;;;4.85;2.78;;;21.80;77.70;;;;;;4738642;30;20059;-93
2022/08/06 13:22:51;;;;;;;5.20;2.67;;;21.60;78.40;;;;;;4709049;30;20508;-94
2022/08/06 13:25:51;;;;;;;4.05;2.30;;;21.30;79.50;;;;;;4730696;30;20142;-94
2022/08/06 13:28:27;;;;;;;5.30;2.88;;;21.00;80.90;;;;;;4738864;30;20163;-94
2022/08/06 13:31:19;;;;;;;4.72;2.85;;;21.00;84.00;;;;;;4754768;30;20046;-94
2022/08/06 13:34:10;;;;;;;3.85;2.65;;;21.00;83.40;;;;;;4736256;30;20158;-94
2022/08/06 13:37:00;;;;;;;6.25;3.08;;;21.00;83.50;;;;;;4737255;30;20052;-93
2022/08/06 13:40:19;;;;;;;4.15;3.10;;;21.00;85.90;;;;;;4737967;30;20058;-93
2022/08/06 13:43:07;;;;;;;6.60;3.00;;;20.90;87.70;;;;;;4738190;30;20052;-93
2022/08/06 13:46:16;;;;;;;3.35;2.40;;;21.10;86.50;;;;;;4761908;30;20082;-93
2022/08/06 13:48:50;;;;;;;5.45;3.15;;;21.20;85.80;;;;;;4737156;30;20102;-90
2022/08/06 13:51:29;;;;;;;4.85;2.95;;;21.10;84.10;;;;;;4736962;30;20505;-91
2022/08/06 13:54:11;;;;;;;6.80;2.85;;;21.10;85.90;;;;;;4739137;30;20089;-92